createdAt,value
2023-04-22T03:33:07.556Z,9.70
2023-04-22T03:43:50.167Z,9.60
2023-04-22T03:54:27.018Z,9.70
2023-04-22T04:05:05.056Z,9.60
2023-04-22T04:15:41.167Z,9.40
2023-04-22T04:26:18.070Z,9.40
2023-04-22T04:36:57.555Z,9.40
2023-04-22T04:47:41.596Z,9.20
2023-04-22T04:58:28.329Z,9.20
2023-04-22T05:09:18.983Z,9.40
2023-04-22T05:19:57.661Z,9.60
2023-04-22T05:30:33.532Z,9.60
2023-04-22T05:41:09.257Z,9.90
2023-04-22T05:51:45.762Z,10.40
2023-04-22T06:02:24.789Z,10.80
2023-04-22T06:13:01.200Z,11.60
2023-04-22T06:23:37.140Z,14.60
2023-04-22T06:34:13.288Z,15.70
2023-04-22T06:44:49.084Z,14.90
2023-04-22T06:55:37.805Z,18.50
2023-04-22T07:06:13.359Z,21.40
2023-04-22T07:16:49.270Z,23.90
2023-04-22T07:27:25.197Z,24.60
2023-04-22T07:38:00.972Z,26.00
2023-04-22T07:48:36.618Z,22.70
2023-04-22T07:59:12.382Z,25.30
2023-04-22T08:09:48.138Z,24.10
2023-04-22T08:20:25.539Z,27.10
2023-04-22T08:31:01.400Z,28.50
2023-04-22T08:41:37.118Z,29.00
2023-04-22T08:52:15.126Z,28.50
2023-04-22T09:02:52.104Z,24.40
2023-04-22T09:13:28.008Z,22.80
2023-04-22T09:24:03.786Z,26.80
2023-04-22T09:34:54.628Z,28.50
2023-04-22T09:45:41.711Z,24.60
2023-04-22T09:56:17.744Z,24.30
2023-04-22T10:06:54.291Z,27.10
2023-04-22T10:17:33.200Z,27.20
2023-04-22T10:28:10.817Z,24.20
2023-04-22T10:38:55.878Z,22.90
2023-04-22T10:49:31.967Z,22.40
2023-04-22T11:00:25.445Z,22.70
2023-04-22T11:11:09.685Z,22.40
2023-04-22T11:21:45.353Z,22.30
2023-04-22T11:32:21.556Z,21.80
2023-04-22T11:42:58.512Z,21.70
2023-04-22T11:53:34.087Z,22.50
2023-04-22T12:04:11.068Z,22.20
2023-04-22T12:14:47.035Z,23.00
2023-04-22T12:25:22.837Z,23.20
2023-04-22T12:35:59.016Z,22.90
2023-04-22T12:46:36.018Z,22.30
2023-04-22T12:57:11.929Z,22.20
2023-04-22T13:07:59.604Z,22.10
2023-04-22T13:18:39.590Z,21.80
2023-04-22T13:29:15.404Z,21.50
2023-04-22T13:39:51.034Z,20.90
2023-04-22T13:50:26.916Z,20.60
2023-04-22T14:01:02.765Z,20.40
2023-04-22T14:11:38.480Z,20.10
2023-04-22T14:22:14.146Z,19.70
2023-04-22T14:32:50.393Z,19.30
2023-04-22T14:43:25.924Z,19.10
2023-04-22T14:54:02.149Z,19.20
2023-04-22T15:04:38.001Z,19.00
2023-04-22T15:15:15.739Z,18.80
2023-04-22T15:25:51.374Z,18.40
2023-04-22T15:36:27.426Z,18.60
2023-04-22T15:47:04.083Z,18.60
2023-04-22T15:57:39.676Z,18.70
2023-04-22T16:08:16.544Z,18.60
2023-04-22T16:18:52.353Z,18.50
2023-04-22T16:29:28.524Z,18.80
2023-04-22T16:40:06.120Z,18.90
2023-04-22T16:50:41.886Z,18.90
2023-04-22T17:01:17.641Z,18.60
2023-04-22T17:11:53.500Z,18.60
2023-04-22T17:22:29.314Z,18.40
2023-04-22T17:33:05.746Z,18.40
2023-04-22T17:43:41.487Z,18.40
2023-04-22T17:54:16.786Z,18.00
2023-04-22T18:04:52.670Z,17.80
2023-04-22T18:15:28.320Z,17.60
2023-04-22T18:26:09.648Z,17.20
2023-04-22T18:36:45.515Z,16.90
2023-04-22T18:47:21.334Z,16.70
2023-04-22T18:57:57.027Z,16.50
2023-04-22T19:08:33.329Z,16.50
2023-04-22T19:19:09.057Z,16.20
2023-04-22T19:29:50.995Z,16.00
2023-04-22T19:40:26.816Z,15.70
2023-04-22T19:51:03.109Z,15.60
2023-04-22T20:01:38.696Z,15.50
2023-04-22T20:12:14.388Z,15.50
2023-04-22T20:22:52.975Z,15.30
2023-04-22T20:33:29.419Z,15.00
2023-04-22T20:44:05.342Z,14.70
2023-04-22T20:54:41.171Z,14.20
2023-04-22T21:05:17.818Z,14.00
2023-04-22T21:16:02.950Z,13.70
2023-04-22T21:26:40.068Z,13.50
